sensor_id;sensor_type;location;lat;lon;timestamp;pressure;altitude;pressure_sealevel;temperature;humidity
54900;BME280;40801;41.924;25.562;2023-05-28T00:02:03;99163.03;;;19.56;66.92
54900;BME280;40801;41.924;25.562;2023-05-28T00:04:29;99166.97;;;19.59;66.74
54900;BME280;40801;41.924;25.562;2023-05-28T00:06:54;99164.69;;;19.64;66.32
54900;BME280;40801;41.924;25.562;2023-05-28T00:09:21;99163.53;;;19.65;66.06
54900;BME280;40801;41.924;25.562;2023-05-28T00:11:46;99160.38;;;19.63;66.08
54900;BME280;40801;41.924;25.562;2023-05-28T00:14:12;99161.75;;;19.50;66.75
54900;BME280;40801;41.924;25.562;2023-05-28T00:16:37;99161.47;;;19.55;66.45
54900;BME280;40801;41.924;25.562;2023-05-28T00:19:03;99157.84;;;19.51;66.30
54900;BME280;40801;41.924;25.562;2023-05-28T00:21:29;99156.25;;;19.46;66.55
54900;BME280;40801;41.924;25.562;2023-05-28T00:23:58;99153.88;;;19.45;66.74
54900;BME280;40801;41.924;25.562;2023-05-28T00:26:23;99151.69;;;19.54;66.23
54900;BME280;40801;41.924;25.562;2023-05-28T00:28:49;99156.66;;;19.48;66.59
54900;BME280;40801;41.924;25.562;2023-05-28T00:31:14;99147.28;;;19.49;66.62
54900;BME280;40801;41.924;25.562;2023-05-28T00:33:40;99147.66;;;19.48;66.69
54900;BME280;40801;41.924;25.562;2023-05-28T00:36:05;99134.09;;;19.29;67.75
54900;BME280;40801;41.924;25.562;2023-05-28T00:38:31;99141.78;;;19.19;68.26
54900;BME280;40801;41.924;25.562;2023-05-28T00:40:56;99144.97;;;19.25;68.35
54900;BME280;40801;41.924;25.562;2023-05-28T00:43:22;99147.25;;;19.19;69.18
54900;BME280;40801;41.924;25.562;2023-05-28T00:45:50;99140.34;;;19.29;68.54
54900;BME280;40801;41.924;25.562;2023-05-28T00:48:16;99128.56;;;19.25;68.51
54900;BME280;40801;41.924;25.562;2023-05-28T00:50:42;99136.88;;;19.06;69.91
54900;BME280;40801;41.924;25.562;2023-05-28T00:53:09;99129.53;;;19.10;69.89
54900;BME280;40801;41.924;25.562;2023-05-28T00:55:35;99126.63;;;18.99;70.40
54900;BME280;40801;41.924;25.562;2023-05-28T00:58:01;99126.19;;;18.97;70.97
54900;BME280;40801;41.924;25.562;2023-05-28T01:00:30;99127.50;;;19.07;70.63
54900;BME280;40801;41.924;25.562;2023-05-28T01:02:56;99130.47;;;18.95;71.41
54900;BME280;40801;41.924;25.562;2023-05-28T01:05:21;99124.53;;;18.89;71.58
54900;BME280;40801;41.924;25.562;2023-05-28T01:07:47;99121.78;;;18.89;71.92
54900;BME280;40801;41.924;25.562;2023-05-28T01:10:13;99117.09;;;18.90;71.93
54900;BME280;40801;41.924;25.562;2023-05-28T01:12:39;99125.59;;;18.62;73.34
54900;BME280;40801;41.924;25.562;2023-05-28T01:15:08;99124.47;;;18.63;73.53
54900;BME280;40801;41.924;25.562;2023-05-28T01:17:34;99118.03;;;18.74;72.82
54900;BME280;40801;41.924;25.562;2023-05-28T01:20:00;99126.84;;;18.64;73.50
54900;BME280;40801;41.924;25.562;2023-05-28T01:22:40;99128.16;;;18.74;73.29
54900;BME280;40801;41.924;25.562;2023-05-28T01:25:12;99128.16;;;18.74;73.38
54900;BME280;40801;41.924;25.562;2023-05-28T01:27:41;99118.16;;;18.81;73.15
54900;BME280;40801;41.924;25.562;2023-05-28T01:30:08;99109.66;;;18.86;72.86
54900;BME280;40801;41.924;25.562;2023-05-28T01:32:40;99116.56;;;18.57;74.39
54900;BME280;40801;41.924;25.562;2023-05-28T01:35:07;99106.25;;;18.70;73.64
54900;BME280;40801;41.924;25.562;2023-05-28T01:37:36;99119.44;;;18.65;74.15
54900;BME280;40801;41.924;25.562;2023-05-28T01:40:02;99120.13;;;18.62;74.29
54900;BME280;40801;41.924;25.562;2023-05-28T01:42:29;99116.63;;;18.61;73.62
54900;BME280;40801;41.924;25.562;2023-05-28T01:45:14;99114.22;;;18.37;75.17
54900;BME280;40801;41.924;25.562;2023-05-28T01:47:40;99114.28;;;18.40;75.00
54900;BME280;40801;41.924;25.562;2023-05-28T01:50:07;99116.53;;;18.35;75.37
54900;BME280;40801;41.924;25.562;2023-05-28T01:52:33;99116.22;;;18.40;75.14
54900;BME280;40801;41.924;25.562;2023-05-28T01:54:58;99123.50;;;18.32;75.32
54900;BME280;40801;41.924;25.562;2023-05-28T01:57:23;99128.19;;;18.32;75.35
54900;BME280;40801;41.924;25.562;2023-05-28T01:59:49;99134.97;;;18.41;74.74
54900;BME280;40801;41.924;25.562;2023-05-28T02:02:14;99134.97;;;18.41;74.80
54900;BME280;40801;41.924;25.562;2023-05-28T02:04:40;99138.63;;;18.49;74.11
54900;BME280;40801;41.924;25.562;2023-05-28T02:07:05;99142.03;;;18.42;74.57
54900;BME280;40801;41.924;25.562;2023-05-28T02:09:31;99138.88;;;18.40;74.51
54900;BME280;40801;41.924;25.562;2023-05-28T02:11:56;99149.13;;;18.47;74.08
54900;BME280;40801;41.924;25.562;2023-05-28T02:14:24;99154.28;;;18.29;74.89
54900;BME280;40801;41.924;25.562;2023-05-28T02:16:49;99155.63;;;18.39;74.46
54900;BME280;40801;41.924;25.562;2023-05-28T02:19:36;99159.50;;;18.38;76.68
54900;BME280;40801;41.924;25.562;2023-05-28T02:22:02;99164.28;;;18.21;76.61
54900;BME280;40801;41.924;25.562;2023-05-28T02:24:35;99163.31;;;18.14;77.94
54900;BME280;40801;41.924;25.562;2023-05-28T02:27:00;99162.66;;;18.20;77.91
54900;BME280;40801;41.924;25.562;2023-05-28T02:29:26;99163.81;;;18.19;77.79
54900;BME280;40801;41.924;25.562;2023-05-28T02:31:52;99167.34;;;18.20;78.68
54900;BME280;40801;41.924;25.562;2023-05-28T02:37:03;99168.91;;;18.21;78.93
54900;BME280;40801;41.924;25.562;2023-05-28T02:39:29;99178.53;;;18.15;80.41
54900;BME280;40801;41.924;25.562;2023-05-28T02:41:54;99177.41;;;18.16;79.41
54900;BME280;40801;41.924;25.562;2023-05-28T02:44:21;99174.31;;;18.17;79.64
54900;BME280;40801;41.924;25.562;2023-05-28T02:46:46;99175.97;;;18.03;80.01
54900;BME280;40801;41.924;25.562;2023-05-28T02:49:12;99173.69;;;18.05;79.87
54900;BME280;40801;41.924;25.562;2023-05-28T02:51:37;99188.38;;;17.81;81.02
54900;BME280;40801;41.924;25.562;2023-05-28T02:54:03;99185.97;;;17.95;80.13
54900;BME280;40801;41.924;25.562;2023-05-28T02:56:28;99186.03;;;17.99;79.86
54900;BME280;40801;41.924;25.562;2023-05-28T02:58:53;99195.78;;;18.00;79.71
54900;BME280;40801;41.924;25.562;2023-05-28T03:01:19;99186.31;;;17.93;80.10
54900;BME280;40801;41.924;25.562;2023-05-28T03:03:44;99191.00;;;17.93;80.52
54900;BME280;40801;41.924;25.562;2023-05-28T03:06:10;99189.75;;;17.90;81.37
54900;BME280;40801;41.924;25.562;2023-05-28T03:08:36;99198.34;;;17.92;81.26
54900;BME280;40801;41.924;25.562;2023-05-28T03:11:01;99195.19;;;17.90;81.71
54900;BME280;40801;41.924;25.562;2023-05-28T03:13:26;99192.47;;;17.90;82.47
54900;BME280;40801;41.924;25.562;2023-05-28T03:15:52;99196.28;;;17.86;83.46
54900;BME280;40801;41.924;25.562;2023-05-28T03:18:17;99195.72;;;17.96;83.07
54900;BME280;40801;41.924;25.562;2023-05-28T03:20:43;99190.47;;;17.87;84.28
54900;BME280;40801;41.924;25.562;2023-05-28T03:23:08;99188.25;;;17.93;83.64
54900;BME280;40801;41.924;25.562;2023-05-28T03:25:33;99189.19;;;18.01;83.11
54900;BME280;40801;41.924;25.562;2023-05-28T03:27:59;99183.00;;;18.04;82.50
54900;BME280;40801;41.924;25.562;2023-05-28T03:30:25;99180.66;;;18.02;82.69
54900;BME280;40801;41.924;25.562;2023-05-28T03:32:50;99185.16;;;17.94;83.05
54900;BME280;40801;41.924;25.562;2023-05-28T03:35:16;99184.72;;;17.92;84.05
54900;BME280;40801;41.924;25.562;2023-05-28T03:37:42;99184.88;;;18.00;83.82
54900;BME280;40801;41.924;25.562;2023-05-28T03:40:08;99192.72;;;18.01;83.82
54900;BME280;40801;41.924;25.562;2023-05-28T03:42:38;99184.94;;;18.03;84.37
54900;BME280;40801;41.924;25.562;2023-05-28T03:45:04;99193.63;;;18.09;83.60
54900;BME280;40801;41.924;25.562;2023-05-28T03:47:30;99197.66;;;18.15;83.18
54900;BME280;40801;41.924;25.562;2023-05-28T03:49:57;99199.38;;;18.04;83.91
54900;BME280;40801;41.924;25.562;2023-05-28T03:52:24;99192.72;;;18.01;83.89
54900;BME280;40801;41.924;25.562;2023-05-28T03:54:49;99202.53;;;18.06;83.69
54900;BME280;40801;41.924;25.562;2023-05-28T03:57:15;99190.47;;;18.07;83.76
54900;BME280;40801;41.924;25.562;2023-05-28T03:59:40;99200.53;;;18.03;84.22
54900;BME280;40801;41.924;25.562;2023-05-28T04:02:06;99198.88;;;17.98;85.18
54900;BME280;40801;41.924;25.562;2023-05-28T04:04:31;99200.97;;;18.05;84.02
54900;BME280;40801;41.924;25.562;2023-05-28T04:06:56;99191.47;;;18.18;83.17
54900;BME280;40801;41.924;25.562;2023-05-28T04:09:22;99193.78;;;18.16;83.53
54900;BME280;40801;41.924;25.562;2023-05-28T04:11:48;99196.31;;;18.24;83.38
54900;BME280;40801;41.924;25.562;2023-05-28T04:14:13;99204.13;;;18.26;83.66
54900;BME280;40801;41.924;25.562;2023-05-28T04:16:39;99198.16;;;18.20;83.47
54900;BME280;40801;41.924;25.562;2023-05-28T04:19:04;99204.69;;;18.16;84.26
54900;BME280;40801;41.924;25.562;2023-05-28T04:21:31;99199.28;;;18.19;84.22
54900;BME280;40801;41.924;25.562;2023-05-28T04:23:56;99206.19;;;18.13;84.88
54900;BME280;40801;41.924;25.562;2023-05-28T04:26:22;99205.13;;;18.18;84.68
54900;BME280;40801;41.924;25.562;2023-05-28T04:28:49;99207.00;;;18.14;84.29
54900;BME280;40801;41.924;25.562;2023-05-28T04:31:15;99207.34;;;18.12;84.94
54900;BME280;40801;41.924;25.562;2023-05-28T04:33:41;99207.78;;;18.14;84.85
54900;BME280;40801;41.924;25.562;2023-05-28T04:36:07;99214.09;;;18.18;85.05
54900;BME280;40801;41.924;25.562;2023-05-28T04:38:38;99216.69;;;18.31;84.01
54900;BME280;40801;41.924;25.562;2023-05-28T04:41:05;99213.97;;;18.31;84.01
54900;BME280;40801;41.924;25.562;2023-05-28T04:43:31;99212.31;;;18.26;84.06
54900;BME280;40801;41.924;25.562;2023-05-28T04:45:59;99219.34;;;18.27;84.12
54900;BME280;40801;41.924;25.562;2023-05-28T04:48:28;99217.72;;;18.22;84.34
54900;BME280;40801;41.924;25.562;2023-05-28T04:50:53;99218.41;;;18.19;84.48
54900;BME280;40801;41.924;25.562;2023-05-28T04:53:19;99221.66;;;18.06;85.45
54900;BME280;40801;41.924;25.562;2023-05-28T04:55:45;99218.13;;;18.05;85.44
54900;BME280;40801;41.924;25.562;2023-05-28T04:58:10;99216.75;;;18.15;84.58
54900;BME280;40801;41.924;25.562;2023-05-28T05:00:36;99215.47;;;18.09;85.51
54900;BME280;40801;41.924;25.562;2023-05-28T05:03:01;99220.09;;;18.24;84.63
54900;BME280;40801;41.924;25.562;2023-05-28T05:05:27;99226.94;;;18.18;85.99
54900;BME280;40801;41.924;25.562;2023-05-28T05:07:52;99227.97;;;18.29;86.19
54900;BME280;40801;41.924;25.562;2023-05-28T05:10:18;99231.25;;;18.57;84.67
54900;BME280;40801;41.924;25.562;2023-05-28T05:12:43;99227.66;;;18.73;84.15
54900;BME280;40801;41.924;25.562;2023-05-28T05:15:09;99224.28;;;18.79;83.41
54900;BME280;40801;41.924;25.562;2023-05-28T05:17:34;99231.53;;;18.72;83.37
54900;BME280;40801;41.924;25.562;2023-05-28T05:20:01;99226.66;;;18.62;83.41
54900;BME280;40801;41.924;25.562;2023-05-28T05:22:30;99225.16;;;18.64;82.76
54900;BME280;40801;41.924;25.562;2023-05-28T05:24:56;99211.94;;;18.47;83.80
54900;BME280;40801;41.924;25.562;2023-05-28T05:27:22;99228.25;;;18.63;82.86
54900;BME280;40801;41.924;25.562;2023-05-28T05:29:47;99228.69;;;18.65;83.87
54900;BME280;40801;41.924;25.562;2023-05-28T05:32:12;99229.03;;;18.82;82.13
54900;BME280;40801;41.924;25.562;2023-05-28T05:34:38;99226.78;;;18.88;81.97
54900;BME280;40801;41.924;25.562;2023-05-28T05:37:04;99224.94;;;18.96;81.82
54900;BME280;40801;41.924;25.562;2023-05-28T05:39:29;99238.56;;;18.92;82.20
54900;BME280;40801;41.924;25.562;2023-05-28T05:41:55;99224.47;;;19.13;82.32
54900;BME280;40801;41.924;25.562;2023-05-28T05:44:20;99231.75;;;19.28;80.95
54900;BME280;40801;41.924;25.562;2023-05-28T05:46:46;99227.91;;;19.33;81.14
54900;BME280;40801;41.924;25.562;2023-05-28T05:49:11;99227.91;;;19.56;80.38
54900;BME280;40801;41.924;25.562;2023-05-28T05:51:37;99228.13;;;19.70;79.33
54900;BME280;40801;41.924;25.562;2023-05-28T05:54:03;99225.53;;;19.80;78.72
54900;BME280;40801;41.924;25.562;2023-05-28T05:56:28;99227.59;;;19.91;78.05
54900;BME280;40801;41.924;25.562;2023-05-28T05:58:54;99235.06;;;19.94;77.04
54900;BME280;40801;41.924;25.562;2023-05-28T06:01:20;99231.53;;;19.93;77.41
54900;BME280;40801;41.924;25.562;2023-05-28T06:03:46;99225.19;;;19.86;77.89
54900;BME280;40801;41.924;25.562;2023-05-28T06:06:11;99235.28;;;20.08;77.79
54900;BME280;40801;41.924;25.562;2023-05-28T06:08:38;99228.53;;;20.32;77.56
54900;BME280;40801;41.924;25.562;2023-05-28T06:11:03;99223.50;;;20.37;77.67
54900;BME280;40801;41.924;25.562;2023-05-28T06:13:29;99221.09;;;20.62;76.81
54900;BME280;40801;41.924;25.562;2023-05-28T06:15:54;99225.19;;;20.46;77.21
54900;BME280;40801;41.924;25.562;2023-05-28T06:18:19;99233.00;;;20.81;75.38
54900;BME280;40801;41.924;25.562;2023-05-28T06:20:46;99230.81;;;20.97;74.53
54900;BME280;40801;41.924;25.562;2023-05-28T06:23:14;99229.41;;;21.14;73.66
54900;BME280;40801;41.924;25.562;2023-05-28T06:25:40;99224.59;;;21.03;73.65
54900;BME280;40801;41.924;25.562;2023-05-28T06:28:05;99234.94;;;21.21;73.77
54900;BME280;40801;41.924;25.562;2023-05-28T06:30:30;99237.66;;;21.17;72.70
54900;BME280;40801;41.924;25.562;2023-05-28T06:32:56;99229.81;;;21.16;72.03
54900;BME280;40801;41.924;25.562;2023-05-28T06:35:21;99232.84;;;21.07;72.55
54900;BME280;40801;41.924;25.562;2023-05-28T06:37:47;99234.25;;;21.27;72.38
54900;BME280;40801;41.924;25.562;2023-05-28T06:40:12;99235.47;;;21.33;72.26
54900;BME280;40801;41.924;25.562;2023-05-28T06:42:38;99234.44;;;21.56;71.84
54900;BME280;40801;41.924;25.562;2023-05-28T06:45:04;99237.34;;;21.77;72.27
54900;BME280;40801;41.924;25.562;2023-05-28T06:47:29;99232.78;;;22.03;70.79
54900;BME280;40801;41.924;25.562;2023-05-28T06:49:55;99223.31;;;21.96;70.55
54900;BME280;40801;41.924;25.562;2023-05-28T06:52:21;99219.94;;;22.24;69.81
54900;BME280;40801;41.924;25.562;2023-05-28T06:54:46;99229.03;;;22.39;68.72
54900;BME280;40801;41.924;25.562;2023-05-28T06:57:12;99224.28;;;22.29;68.18
54900;BME280;40801;41.924;25.562;2023-05-28T06:59:37;99227.06;;;22.40;68.67
54900;BME280;40801;41.924;25.562;2023-05-28T07:02:03;99233.75;;;22.42;66.91
54900;BME280;40801;41.924;25.562;2023-05-28T07:04:28;99227.44;;;22.28;68.35
54900;BME280;40801;41.924;25.562;2023-05-28T07:06:53;99224.72;;;22.42;67.42
54900;BME280;40801;41.924;25.562;2023-05-28T07:09:19;99229.84;;;22.47;67.09
54900;BME280;40801;41.924;25.562;2023-05-28T07:11:45;99227.13;;;22.58;66.96
54900;BME280;40801;41.924;25.562;2023-05-28T07:14:10;99227.16;;;22.65;67.13
54900;BME280;40801;41.924;25.562;2023-05-28T07:16:36;99222.47;;;22.83;65.56
54900;BME280;40801;41.924;25.562;2023-05-28T07:19:01;99222.91;;;22.85;65.91
54900;BME280;40801;41.924;25.562;2023-05-28T07:21:26;99226.75;;;22.63;66.17
54900;BME280;40801;41.924;25.562;2023-05-28T07:23:52;99230.69;;;22.76;66.18
54900;BME280;40801;41.924;25.562;2023-05-28T07:26:17;99227.59;;;22.81;65.75
54900;BME280;40801;41.924;25.562;2023-05-28T07:28:42;99233.44;;;22.62;65.61
54900;BME280;40801;41.924;25.562;2023-05-28T07:31:08;99227.50;;;22.52;65.36
54900;BME280;40801;41.924;25.562;2023-05-28T07:33:33;99227.88;;;22.44;64.85
54900;BME280;40801;41.924;25.562;2023-05-28T07:35:59;99227.69;;;22.01;65.62
54900;BME280;40801;41.924;25.562;2023-05-28T07:38:25;99227.13;;;21.74;66.47
54900;BME280;40801;41.924;25.562;2023-05-28T07:40:50;99216.06;;;21.63;67.47
54900;BME280;40801;41.924;25.562;2023-05-28T07:43:16;99223.06;;;21.50;68.42
54900;BME280;40801;41.924;25.562;2023-05-28T07:45:41;99218.72;;;21.49;68.35
54900;BME280;40801;41.924;25.562;2023-05-28T07:48:06;99218.63;;;21.35;68.18
54900;BME280;40801;41.924;25.562;2023-05-28T07:50:32;99222.56;;;21.38;68.07
54900;BME280;40801;41.924;25.562;2023-05-28T07:52:58;99216.53;;;21.21;68.86
54900;BME280;40801;41.924;25.562;2023-05-28T07:55:23;99216.88;;;21.13;69.62
54900;BME280;40801;41.924;25.562;2023-05-28T07:57:48;99214.50;;;21.11;70.35
54900;BME280;40801;41.924;25.562;2023-05-28T08:00:14;99205.00;;;21.01;71.52
54900;BME280;40801;41.924;25.562;2023-05-28T08:02:42;99214.75;;;20.95;71.27
54900;BME280;40801;41.924;25.562;2023-05-28T08:05:07;99223.69;;;20.89;70.95
54900;BME280;40801;41.924;25.562;2023-05-28T08:07:34;99223.28;;;20.87;71.21
54900;BME280;40801;41.924;25.562;2023-05-28T08:09:59;99222.66;;;21.08;70.13
54900;BME280;40801;41.924;25.562;2023-05-28T08:12:25;99223.31;;;21.34;70.10
54900;BME280;40801;41.924;25.562;2023-05-28T08:14:50;99219.13;;;21.48;69.89
54900;BME280;40801;41.924;25.562;2023-05-28T08:17:16;99229.13;;;21.81;69.03
54900;BME280;40801;41.924;25.562;2023-05-28T08:19:42;99223.66;;;21.88;68.90
54900;BME280;40801;41.924;25.562;2023-05-28T08:22:07;99228.94;;;22.21;68.33
54900;BME280;40801;41.924;25.562;2023-05-28T08:24:33;99224.00;;;22.55;67.80
54900;BME280;40801;41.924;25.562;2023-05-28T08:26:59;99220.16;;;23.06;65.84
54900;BME280;40801;41.924;25.562;2023-05-28T08:29:24;99214.66;;;23.60;64.96
54900;BME280;40801;41.924;25.562;2023-05-28T08:31:50;99216.59;;;23.77;64.15
54900;BME280;40801;41.924;25.562;2023-05-28T08:34:16;99214.81;;;24.40;63.24
54900;BME280;40801;41.924;25.562;2023-05-28T08:36:41;99209.75;;;24.31;61.95
54900;BME280;40801;41.924;25.562;2023-05-28T08:39:07;99204.88;;;24.57;60.20
54900;BME280;40801;41.924;25.562;2023-05-28T08:41:34;99202.91;;;24.54;60.00
54900;BME280;40801;41.924;25.562;2023-05-28T08:43:59;99215.00;;;24.74;59.54
54900;BME280;40801;41.924;25.562;2023-05-28T08:46:25;99207.53;;;24.75;59.06
54900;BME280;40801;41.924;25.562;2023-05-28T08:48:51;99206.44;;;24.54;59.05
54900;BME280;40801;41.924;25.562;2023-05-28T08:51:20;99209.72;;;24.35;59.01
54900;BME280;40801;41.924;25.562;2023-05-28T08:53:46;99202.06;;;23.44;58.98
54900;BME280;40801;41.924;25.562;2023-05-28T08:56:12;99218.19;;;23.39;60.19
54900;BME280;40801;41.924;25.562;2023-05-28T08:58:38;99211.91;;;23.24;60.73
54900;BME280;40801;41.924;25.562;2023-05-28T09:01:08;99225.25;;;23.11;62.08
54900;BME280;40801;41.924;25.562;2023-05-28T09:03:34;99226.03;;;23.12;62.67
54900;BME280;40801;41.924;25.562;2023-05-28T09:06:01;99231.56;;;22.98;63.46
54900;BME280;40801;41.924;25.562;2023-05-28T09:08:26;99217.81;;;23.23;63.54
54900;BME280;40801;41.924;25.562;2023-05-28T09:10:55;99220.56;;;23.44;62.48
54900;BME280;40801;41.924;25.562;2023-05-28T09:13:21;99209.13;;;23.70;61.76
54900;BME280;40801;41.924;25.562;2023-05-28T09:15:50;99211.84;;;23.81;60.84
54900;BME280;40801;41.924;25.562;2023-05-28T09:18:20;99208.72;;;23.75;60.00
54900;BME280;40801;41.924;25.562;2023-05-28T09:20:46;99207.97;;;23.57;60.89
54900;BME280;40801;41.924;25.562;2023-05-28T09:23:16;99208.34;;;23.41;61.54
54900;BME280;40801;41.924;25.562;2023-05-28T09:25:41;99213.47;;;23.39;61.05
54900;BME280;40801;41.924;25.562;2023-05-28T09:28:07;99213.44;;;23.68;61.14
54900;BME280;40801;41.924;25.562;2023-05-28T09:30:35;99210.22;;;23.94;60.28
54900;BME280;40801;41.924;25.562;2023-05-28T09:33:03;99208.19;;;24.20;59.85
54900;BME280;40801;41.924;25.562;2023-05-28T09:35:30;99204.97;;;24.39;59.51
54900;BME280;40801;41.924;25.562;2023-05-28T09:38:22;99202.28;;;24.91;58.53
54900;BME280;40801;41.924;25.562;2023-05-28T09:40:49;99204.53;;;25.10;58.78
54900;BME280;40801;41.924;25.562;2023-05-28T09:43:14;99197.00;;;25.59;57.52
54900;BME280;40801;41.924;25.562;2023-05-28T09:45:40;99199.81;;;25.93;56.70
54900;BME280;40801;41.924;25.562;2023-05-28T09:48:06;99196.03;;;25.80;56.50
54900;BME280;40801;41.924;25.562;2023-05-28T09:50:31;99193.38;;;25.66;56.21
54900;BME280;40801;41.924;25.562;2023-05-28T09:52:58;99194.59;;;25.20;56.28
54900;BME280;40801;41.924;25.562;2023-05-28T09:55:25;99196.19;;;25.21;56.57
54900;BME280;40801;41.924;25.562;2023-05-28T09:58:04;99193.97;;;25.01;57.58
54900;BME280;40801;41.924;25.562;2023-05-28T10:00:42;99188.47;;;25.43;57.19
54900;BME280;40801;41.924;25.562;2023-05-28T10:03:17;99184.59;;;26.12;56.75
54900;BME280;40801;41.924;25.562;2023-05-28T10:05:53;99175.72;;;26.54;55.42
54900;BME280;40801;41.924;25.562;2023-05-28T10:08:22;99175.78;;;26.51;55.24
54900;BME280;40801;41.924;25.562;2023-05-28T10:10:52;99183.47;;;26.40;56.06
54900;BME280;40801;41.924;25.562;2023-05-28T10:13:19;99171.50;;;26.16;55.90
54900;BME280;40801;41.924;25.562;2023-05-28T10:15:45;99178.91;;;26.22;55.06
54900;BME280;40801;41.924;25.562;2023-05-28T10:18:12;99176.41;;;25.67;54.18
54900;BME280;40801;41.924;25.562;2023-05-28T10:20:40;99168.38;;;25.39;54.74
54900;BME280;40801;41.924;25.562;2023-05-28T10:23:09;99179.19;;;25.22;56.33
54900;BME280;40801;41.924;25.562;2023-05-28T10:25:36;99168.88;;;24.78;57.44
54900;BME280;40801;41.924;25.562;2023-05-28T10:28:01;99160.75;;;24.57;58.31
54900;BME280;40801;41.924;25.562;2023-05-28T10:32:57;99157.38;;;24.24;58.95
54900;BME280;40801;41.924;25.562;2023-05-28T10:35:23;99155.91;;;24.05;59.34
54900;BME280;40801;41.924;25.562;2023-05-28T10:37:48;99157.16;;;23.83;60.60
54900;BME280;40801;41.924;25.562;2023-05-28T10:40:23;99146.59;;;23.74;61.46
54900;BME280;40801;41.924;25.562;2023-05-28T10:42:49;99141.47;;;23.76;61.53
54900;BME280;40801;41.924;25.562;2023-05-28T10:45:14;99139.53;;;23.59;62.35
54900;BME280;40801;41.924;25.562;2023-05-28T10:47:50;99140.69;;;23.76;62.86
54900;BME280;40801;41.924;25.562;2023-05-28T10:50:17;99133.94;;;23.88;63.60
54900;BME280;40801;41.924;25.562;2023-05-28T10:55:52;99129.81;;;24.28;63.15
54900;BME280;40801;41.924;25.562;2023-05-28T11:01:00;99125.41;;;24.41;63.02
54900;BME280;40801;41.924;25.562;2023-05-28T11:03:43;99132.06;;;24.47;61.37
54900;BME280;40801;41.924;25.562;2023-05-28T11:06:09;99134.88;;;24.40;61.83
54900;BME280;40801;41.924;25.562;2023-05-28T11:08:43;99122.66;;;24.93;61.32
54900;BME280;40801;41.924;25.562;2023-05-28T11:11:11;99121.19;;;25.98;56.70
54900;BME280;40801;41.924;25.562;2023-05-28T11:13:38;99130.59;;;26.61;55.73
54900;BME280;40801;41.924;25.562;2023-05-28T11:16:08;99118.47;;;26.78;53.94
54900;BME280;40801;41.924;25.562;2023-05-28T11:18:34;99112.22;;;26.98;53.26
54900;BME280;40801;41.924;25.562;2023-05-28T11:21:06;99113.56;;;26.90;53.66
54900;BME280;40801;41.924;25.562;2023-05-28T11:23:33;99113.44;;;27.20;52.56
54900;BME280;40801;41.924;25.562;2023-05-28T11:25:58;99118.38;;;27.09;51.70
54900;BME280;40801;41.924;25.562;2023-05-28T11:28:24;99115.59;;;26.01;53.00
54900;BME280;40801;41.924;25.562;2023-05-28T11:30:55;99114.78;;;25.36;52.93
54900;BME280;40801;41.924;25.562;2023-05-28T11:33:21;99113.34;;;24.76;55.19
54900;BME280;40801;41.924;25.562;2023-05-28T11:35:56;99127.72;;;23.62;58.45
54900;BME280;40801;41.924;25.562;2023-05-28T11:38:21;99125.78;;;23.59;59.00
54900;BME280;40801;41.924;25.562;2023-05-28T11:40:47;99123.91;;;23.13;60.53
54900;BME280;40801;41.924;25.562;2023-05-28T11:43:12;99131.31;;;22.60;64.02
54900;BME280;40801;41.924;25.562;2023-05-28T11:45:39;99132.91;;;22.68;63.88
54900;BME280;40801;41.924;25.562;2023-05-28T11:48:11;99135.22;;;22.55;65.51
54900;BME280;40801;41.924;25.562;2023-05-28T11:50:37;99138.41;;;22.61;66.43
54900;BME280;40801;41.924;25.562;2023-05-28T11:53:02;99136.44;;;22.72;67.14
54900;BME280;40801;41.924;25.562;2023-05-28T11:55:28;99129.41;;;22.99;66.54
54900;BME280;40801;41.924;25.562;2023-05-28T11:57:54;99129.34;;;23.38;68.67
54900;BME280;40801;41.924;25.562;2023-05-28T12:00:29;99125.47;;;24.23;65.55
54900;BME280;40801;41.924;25.562;2023-05-28T12:02:57;99130.81;;;25.11;63.29
54900;BME280;40801;41.924;25.562;2023-05-28T12:05:22;99122.97;;;25.43;63.67
54900;BME280;40801;41.924;25.562;2023-05-28T12:07:49;99135.25;;;25.39;61.40
54900;BME280;40801;41.924;25.562;2023-05-28T12:10:17;99138.50;;;25.30;60.50
54900;BME280;40801;41.924;25.562;2023-05-28T12:12:46;99138.63;;;25.57;61.43
54900;BME280;40801;41.924;25.562;2023-05-28T12:15:13;99142.44;;;25.74;61.25
54900;BME280;40801;41.924;25.562;2023-05-28T12:17:41;99131.50;;;25.59;59.46
54900;BME280;40801;41.924;25.562;2023-05-28T12:23:12;99123.38;;;24.52;61.68
54900;BME280;40801;41.924;25.562;2023-05-28T12:28:10;99124.56;;;25.82;59.42
54900;BME280;40801;41.924;25.562;2023-05-28T12:30:35;99122.16;;;25.84;57.49
54900;BME280;40801;41.924;25.562;2023-05-28T12:33:01;99118.16;;;26.19;56.02
54900;BME280;40801;41.924;25.562;2023-05-28T12:35:27;99113.44;;;26.46;57.01
54900;BME280;40801;41.924;25.562;2023-05-28T12:37:53;99114.41;;;27.10;55.75
54900;BME280;40801;41.924;25.562;2023-05-28T12:40:18;99116.19;;;26.97;55.64
54900;BME280;40801;41.924;25.562;2023-05-28T12:42:43;99109.56;;;26.67;55.39
54900;BME280;40801;41.924;25.562;2023-05-28T12:45:09;99114.47;;;26.56;55.96
54900;BME280;40801;41.924;25.562;2023-05-28T12:47:35;99093.41;;;27.32;54.47
54900;BME280;40801;41.924;25.562;2023-05-28T12:50:00;99099.66;;;27.80;53.17
54900;BME280;40801;41.924;25.562;2023-05-28T12:52:26;99086.75;;;27.89;52.06
54900;BME280;40801;41.924;25.562;2023-05-28T12:54:51;99088.47;;;28.19;52.68
54900;BME280;40801;41.924;25.562;2023-05-28T12:57:16;99084.13;;;28.38;51.23
54900;BME280;40801;41.924;25.562;2023-05-28T12:59:42;99085.34;;;28.86;51.06
54900;BME280;40801;41.924;25.562;2023-05-28T13:02:07;99098.88;;;29.00;50.50
54900;BME280;40801;41.924;25.562;2023-05-28T13:04:33;99096.38;;;28.21;50.65